Time;durP1;ratioP1;P1;durP2;ratioP2;P2;SDS_P1;SDS_P2;PMS_P1;PMS_P2;Temp;Humidity;BMP_temperature;BMP_pressure;BME280_temperature;BME280_humidity;BME280_pressure;Samples;Min_cycle;Max_cycle;Signal;HPM_P1;HPM_P2
2023/06/06 00:02:10;;;;;;;3.83;3.53;;;19.50;99.90;;;;;;5034892;28;20028;-49
2023/06/06 00:04:36;;;;;;;6.32;3.50;;;19.40;99.90;;;;;;5062394;28;20486;-47
2023/06/06 00:07:09;;;;;;;5.63;3.73;;;19.50;99.90;;;;;;5053079;28;20483;-47
2023/06/06 00:09:35;;;;;;;5.15;3.15;;;19.50;99.90;;;;;;5052501;28;20037;-50
2023/06/06 00:12:04;;;;;;;5.03;3.10;;;19.50;99.90;;;;;;5052409;28;20103;-47
2023/06/06 00:14:32;;;;;;;5.90;3.42;;;19.60;99.90;;;;;;5035336;28;20483;-53
2023/06/06 00:17:00;;;;;;;3.67;2.88;;;19.60;99.90;;;;;;5034324;28;20028;-49
2023/06/06 00:19:25;;;;;;;4.78;3.70;;;19.60;99.90;;;;;;5052353;28;20047;-49
2023/06/06 00:21:52;;;;;;;3.35;2.28;;;19.60;99.90;;;;;;5052292;28;20419;-49
2023/06/06 00:24:18;;;;;;;3.53;3.22;;;19.60;99.90;;;;;;5052137;28;20033;-48
2023/06/06 00:26:43;;;;;;;5.25;3.33;;;19.60;99.90;;;;;;5051862;28;20391;-51
2023/06/06 00:29:10;;;;;;;3.40;3.10;;;19.60;99.90;;;;;;5034252;28;20037;-53
2023/06/06 00:31:35;;;;;;;6.03;3.40;;;19.50;99.90;;;;;;5034240;28;20525;-51
2023/06/06 00:34:01;;;;;;;3.83;3.25;;;19.60;99.90;;;;;;5017848;28;20047;-48
2023/06/06 00:36:27;;;;;;;4.20;3.30;;;19.60;99.90;;;;;;5033868;28;20033;-47
2023/06/06 00:38:53;;;;;;;5.47;2.80;;;19.60;99.90;;;;;;5034245;28;20276;-50
2023/06/06 00:41:20;;;;;;;5.78;3.13;;;19.50;99.90;;;;;;5051798;28;20487;-49
2023/06/06 00:43:46;;;;;;;4.40;3.72;;;19.60;99.90;;;;;;5048275;28;20441;-49
2023/06/06 00:46:13;;;;;;;6.43;3.10;;;19.50;99.90;;;;;;5072052;28;20025;-47
2023/06/06 00:48:39;;;;;;;5.00;3.47;;;19.50;99.90;;;;;;5052468;28;20499;-48
2023/06/06 00:51:08;;;;;;;4.30;3.00;;;19.50;99.90;;;;;;5034426;28;20483;-48
2023/06/06 00:53:35;;;;;;;4.65;3.50;;;19.50;99.90;;;;;;5052249;28;20040;-50
2023/06/06 00:56:01;;;;;;;6.05;3.33;;;19.50;99.90;;;;;;5033823;28;20123;-47
2023/06/06 00:58:27;;;;;;;4.40;3.17;;;19.50;99.90;;;;;;5033458;28;20029;-48
2023/06/06 01:00:55;;;;;;;7.32;3.95;;;19.50;99.90;;;;;;5033660;28;20029;-50
2023/06/06 01:03:21;;;;;;;;;;;19.50;99.90;;;;;;5017837;28;20506;-48
2023/06/06 01:05:47;;;;;;;9.30;3.42;;;19.50;99.90;;;;;;5032898;28;19909;-48
2023/06/06 01:08:13;;;;;;;6.32;3.60;;;19.50;99.90;;;;;;5033442;28;20036;-54
2023/06/06 01:10:40;;;;;;;4.82;3.25;;;19.50;99.90;;;;;;5051399;28;20051;-50
2023/06/06 01:13:16;;;;;;;3.33;3.03;;;19.50;99.90;;;;;;5033823;28;20025;-52
2023/06/06 01:15:50;;;;;;;5.82;2.92;;;19.40;99.90;;;;;;5033217;28;20025;-54
2023/06/06 01:18:19;;;;;;;3.58;3.28;;;19.40;99.90;;;;;;5033330;28;20120;-48
2023/06/06 01:20:46;;;;;;;4.07;2.97;;;19.40;99.90;;;;;;5038439;28;20398;-50
2023/06/06 01:23:13;;;;;;;5.72;3.60;;;19.40;99.90;;;;;;5053325;28;20036;-51
2023/06/06 01:25:44;;;;;;;3.70;3.33;;;19.40;99.90;;;;;;5041993;28;20029;-50
2023/06/06 01:28:13;;;;;;;3.53;3.22;;;19.40;99.90;;;;;;5033924;28;20052;-49
2023/06/06 01:30:41;;;;;;;5.60;3.42;;;19.40;99.90;;;;;;5033736;28;20082;-52
2023/06/06 01:33:27;;;;;;;5.45;4.30;;;19.30;99.90;;;;;;5033739;28;20412;-54
2023/06/06 01:36:18;;;;;;;3.88;3.50;;;19.40;99.90;;;;;;5033456;28;20029;-54
2023/06/06 01:38:48;;;;;;;5.85;3.95;;;19.30;99.90;;;;;;5070768;28;20111;-54
2023/06/06 01:41:16;;;;;;;5.65;3.55;;;19.30;99.90;;;;;;5071494;28;20032;-53
2023/06/06 01:43:46;;;;;;;4.90;4.15;;;19.40;99.90;;;;;;5053612;28;20055;-53
2023/06/06 01:46:13;;;;;;;6.13;3.90;;;19.40;99.90;;;;;;5053372;28;20043;-52
2023/06/06 01:48:40;;;;;;;6.38;4.15;;;19.40;99.90;;;;;;5071643;28;20119;-48
2023/06/06 01:51:09;;;;;;;4.80;4.07;;;19.40;99.90;;;;;;5045511;28;20071;-51
2023/06/06 01:53:37;;;;;;;7.93;4.35;;;19.40;99.90;;;;;;5032859;28;20087;-53
2023/06/06 01:56:03;;;;;;;4.78;4.30;;;19.30;99.90;;;;;;5050771;28;20048;-50
2023/06/06 01:58:29;;;;;;;6.10;4.82;;;19.30;99.90;;;;;;5033067;28;20029;-47
2023/06/06 02:00:55;;;;;;;6.28;4.82;;;19.20;99.90;;;;;;5113288;22;20514;-51
2023/06/06 02:03:21;;;;;;;5.30;4.72;;;19.10;99.90;;;;;;5093466;28;20028;-49
2023/06/06 02:05:47;;;;;;;5.32;4.82;;;19.10;99.90;;;;;;5092941;28;20035;-50
2023/06/06 02:08:13;;;;;;;6.88;5.70;;;19.10;99.90;;;;;;5072893;28;20035;-49
2023/06/06 02:10:39;;;;;;;11.00;5.33;;;19.00;99.90;;;;;;5050097;28;20047;-49
2023/06/06 02:13:06;;;;;;;7.32;5.22;;;18.90;99.90;;;;;;5088167;28;20028;-49
2023/06/06 02:15:32;;;;;;;7.55;6.00;;;18.90;99.90;;;;;;5096115;28;20031;-51
2023/06/06 02:17:58;;;;;;;5.57;5.07;;;18.90;99.90;;;;;;5096500;28;20039;-52
2023/06/06 02:20:24;;;;;;;6.40;5.80;;;18.90;99.90;;;;;;5100477;28;20077;-53
2023/06/06 02:22:50;;;;;;;8.23;6.60;;;18.80;99.90;;;;;;5105580;28;20258;-52
2023/06/06 02:25:16;;;;;;;6.82;6.22;;;18.80;99.90;;;;;;5092239;28;20028;-53
2023/06/06 02:27:47;;;;;;;8.77;6.70;;;18.70;99.90;;;;;;5102791;28;20031;-52
2023/06/06 02:30:13;;;;;;;9.50;7.50;;;18.70;99.90;;;;;;5096838;28;20177;-51
2023/06/06 02:32:39;;;;;;;9.73;7.82;;;18.70;99.90;;;;;;5093179;28;20375;-49
2023/06/06 02:35:06;;;;;;;9.55;7.78;;;18.70;99.90;;;;;;5110806;28;20110;-49
2023/06/06 02:37:32;;;;;;;8.63;7.78;;;18.60;99.90;;;;;;5104256;28;20027;-51
2023/06/06 02:40:05;;;;;;;;;;;18.60;99.90;;;;;;5102163;28;20389;-49
2023/06/06 02:42:31;;;;;;;8.43;7.40;;;18.60;99.90;;;;;;5112128;28;20003;-50
2023/06/06 02:44:57;;;;;;;8.80;7.68;;;18.50;99.90;;;;;;5097831;28;20034;-50
2023/06/06 02:47:23;;;;;;;14.13;8.68;;;18.50;99.90;;;;;;5111297;28;20035;-49
2023/06/06 02:49:49;;;;;;;8.93;7.90;;;18.50;99.90;;;;;;5093626;28;20055;-51
2023/06/06 02:52:15;;;;;;;11.23;8.68;;;18.50;99.90;;;;;;5102692;28;20062;-49
2023/06/06 02:54:41;;;;;;;10.57;8.10;;;18.40;99.90;;;;;;5110088;28;20114;-51
2023/06/06 02:57:07;;;;;;;10.57;7.93;;;18.40;99.90;;;;;;5098114;28;20119;-51
2023/06/06 02:59:33;;;;;;;10.18;6.80;;;18.40;99.90;;;;;;5094500;28;20077;-52
2023/06/06 03:02:00;;;;;;;9.35;7.70;;;18.40;99.90;;;;;;5095682;28;20028;-51
2023/06/06 03:04:25;;;;;;;;;;;18.40;99.90;;;;;;5103585;28;20485;-52
2023/06/06 03:06:57;;;;;;;8.25;7.43;;;18.30;99.90;;;;;;5112040;28;19969;-52
2023/06/06 03:09:24;;;;;;;12.30;7.38;;;18.20;99.90;;;;;;5093451;28;20036;-50
2023/06/06 03:11:50;;;;;;;11.23;8.40;;;18.20;99.90;;;;;;5093542;28;20078;-51
2023/06/06 03:14:18;;;;;;;8.93;7.90;;;18.20;99.90;;;;;;5093180;28;20490;-49
2023/06/06 03:16:46;;;;;;;8.88;8.00;;;18.20;99.90;;;;;;5105494;27;20097;-49
2023/06/06 03:19:12;;;;;;;12.57;8.60;;;18.20;99.90;;;;;;5134019;27;20023;-53
2023/06/06 03:21:38;;;;;;;10.70;8.85;;;18.10;99.90;;;;;;5121433;27;20027;-50
2023/06/06 03:24:06;;;;;;;10.30;9.23;;;18.10;99.90;;;;;;5109631;28;20081;-50
2023/06/06 03:26:32;;;;;;;10.73;8.82;;;18.10;99.90;;;;;;5113230;28;20031;-51
2023/06/06 03:29:01;;;;;;;10.13;9.13;;;18.10;99.90;;;;;;5104644;28;20020;-50
2023/06/06 03:31:31;;;;;;;12.10;9.25;;;18.00;99.90;;;;;;5095667;28;20043;-52
2023/06/06 03:33:57;;;;;;;11.98;10.10;;;18.00;99.90;;;;;;5085495;28;20035;-49
2023/06/06 03:36:26;;;;;;;11.45;8.73;;;18.00;99.90;;;;;;5112762;28;20030;-53
2023/06/06 03:38:52;;;;;;;13.07;10.43;;;18.00;99.90;;;;;;5113149;28;20024;-49
2023/06/06 03:41:18;;;;;;;12.85;11.55;;;17.90;99.90;;;;;;5101960;28;20025;-49
2023/06/06 03:43:44;;;;;;;11.85;9.68;;;17.90;99.90;;;;;;5076034;28;20032;-49
2023/06/06 03:46:11;;;;;;;12.60;11.40;;;17.90;99.90;;;;;;5101089;28;20050;-52
2023/06/06 03:48:37;;;;;;;13.18;11.77;;;17.90;99.90;;;;;;5095175;28;20024;-50
2023/06/06 03:51:03;;;;;;;14.48;11.10;;;17.90;99.90;;;;;;5100474;28;20501;-49
2023/06/06 03:53:29;;;;;;;10.93;9.75;;;17.90;99.90;;;;;;5094561;28;20031;-54
2023/06/06 03:55:58;;;;;;;10.32;8.73;;;17.90;99.90;;;;;;5093701;28;20035;-49
2023/06/06 03:58:24;;;;;;;10.32;8.88;;;17.90;99.90;;;;;;5093684;28;20111;-49
2023/06/06 04:00:51;;;;;;;10.18;9.10;;;17.90;99.90;;;;;;5094601;28;20496;-49
2023/06/06 04:03:17;;;;;;;11.95;10.38;;;17.90;99.90;;;;;;5084305;28;20031;-53
2023/06/06 04:05:47;;;;;;;12.65;8.57;;;17.80;99.90;;;;;;5092069;28;20104;-49
2023/06/06 04:08:13;;;;;;;11.15;9.05;;;17.40;99.90;;;;;;5092288;28;20024;-49
2023/06/06 04:10:38;;;;;;;8.35;7.45;;;17.40;99.90;;;;;;5093397;28;20558;-49
2023/06/06 04:13:04;;;;;;;10.88;9.40;;;17.40;99.90;;;;;;5093402;28;20035;-49
2023/06/06 04:15:30;;;;;;;12.68;9.80;;;17.50;99.90;;;;;;5090929;28;20032;-49
2023/06/06 04:17:56;;;;;;;11.80;10.60;;;17.60;99.90;;;;;;5092653;28;20058;-49
2023/06/06 04:20:22;;;;;;;11.38;10.15;;;17.60;99.90;;;;;;5090863;28;20099;-50
2023/06/06 04:22:49;;;;;;;12.73;10.90;;;17.70;99.90;;;;;;5092751;28;20024;-49
2023/06/06 04:25:17;;;;;;;14.20;12.27;;;17.80;99.90;;;;;;5091643;28;20031;-49
2023/06/06 04:27:44;;;;;;;12.18;10.98;;;17.80;99.90;;;;;;5091842;28;20036;-49
2023/06/06 04:30:14;;;;;;;;;;;17.80;99.90;;;;;;5092061;28;20032;-49
2023/06/06 04:32:40;;;;;;;13.10;11.82;;;17.80;99.90;;;;;;5091624;28;19990;-49
2023/06/06 04:35:09;;;;;;;16.05;12.88;;;17.90;99.90;;;;;;5074655;28;20036;-49
2023/06/06 04:37:36;;;;;;;13.48;12.05;;;18.00;99.90;;;;;;5091597;28;20024;-49
2023/06/06 04:40:05;;;;;;;12.80;11.40;;;18.10;99.90;;;;;;5091546;28;20091;-52
2023/06/06 04:42:33;;;;;;;16.52;12.70;;;18.10;99.90;;;;;;5074963;28;20054;-49
2023/06/06 04:45:02;;;;;;;13.98;12.57;;;18.10;99.90;;;;;;5091515;28;20091;-49
2023/06/06 04:47:29;;;;;;;17.80;14.02;;;18.20;99.90;;;;;;5091370;28;20444;-49
2023/06/06 04:49:56;;;;;;;15.43;13.82;;;18.20;99.90;;;;;;5091247;28;20027;-49
2023/06/06 04:52:23;;;;;;;16.67;14.07;;;18.30;99.90;;;;;;5091380;28;20028;-51
2023/06/06 04:54:51;;;;;;;;;;;18.30;99.90;;;;;;5091618;28;20034;-49
2023/06/06 04:57:17;;;;;;;16.55;14.35;;;18.30;99.90;;;;;;5090354;28;19919;-50
2023/06/06 04:59:50;;;;;;;17.42;13.88;;;18.40;99.90;;;;;;5092701;28;20024;-49
2023/06/06 05:02:16;;;;;;;16.13;13.48;;;18.40;99.90;;;;;;5092426;28;20080;-49
2023/06/06 05:04:42;;;;;;;17.58;12.85;;;18.50;99.90;;;;;;5092241;28;20020;-49
2023/06/06 05:07:08;;;;;;;16.40;12.77;;;18.40;99.90;;;;;;5092322;28;20404;-49
2023/06/06 05:09:34;;;;;;;16.23;14.50;;;18.50;99.90;;;;;;5092196;28;20039;-49
2023/06/06 05:12:00;;;;;;;18.67;14.00;;;18.50;99.90;;;;;;5092355;28;20202;-49
2023/06/06 05:14:26;;;;;;;15.40;13.55;;;18.50;99.90;;;;;;5092184;28;20100;-50
2023/06/06 05:16:57;;;;;;;21.13;15.52;;;18.60;99.90;;;;;;5092065;28;20032;-49
2023/06/06 05:19:23;;;;;;;19.98;16.52;;;18.60;99.90;;;;;;5092081;28;20032;-49
2023/06/06 05:21:49;;;;;;;22.27;17.48;;;18.60;99.90;;;;;;5090996;28;20085;-51
2023/06/06 05:24:15;;;;;;;25.10;20.40;;;18.70;99.90;;;;;;5092110;28;20024;-51
2023/06/06 05:26:41;;;;;;;23.92;19.60;;;18.70;99.90;;;;;;5090693;28;20285;-51
2023/06/06 05:29:08;;;;;;;25.40;18.73;;;18.70;99.90;;;;;;5091940;28;20028;-50
2023/06/06 05:31:34;;;;;;;25.88;20.20;;;18.70;99.90;;;;;;5090613;28;20031;-49
2023/06/06 05:34:00;;;;;;;27.73;21.13;;;18.70;99.90;;;;;;5091965;28;20035;-50
2023/06/06 05:36:27;;;;;;;24.27;18.33;;;18.70;99.90;;;;;;5091655;28;20371;-49
2023/06/06 05:38:53;;;;;;;27.02;21.30;;;18.80;99.90;;;;;;5092043;28;20101;-52
2023/06/06 05:41:20;;;;;;;26.40;19.88;;;18.80;99.90;;;;;;5090906;28;20016;-50
2023/06/06 05:43:50;;;;;;;25.00;19.55;;;18.90;99.90;;;;;;5091857;28;20096;-52
2023/06/06 05:46:16;;;;;;;23.17;19.45;;;18.90;99.90;;;;;;5091747;28;20051;-49
2023/06/06 05:48:42;;;;;;;;;;;19.00;99.90;;;;;;5090910;28;20036;-51
2023/06/06 05:51:08;;;;;;;23.00;19.38;;;18.90;99.90;;;;;;5090539;28;19912;-49
2023/06/06 05:53:39;;;;;;;25.08;19.92;;;19.00;99.90;;;;;;5091792;28;20493;-49
2023/06/06 05:56:05;;;;;;;25.30;18.83;;;19.00;99.90;;;;;;5091451;28;20035;-49
2023/06/06 05:58:31;;;;;;;22.77;18.97;;;19.00;99.90;;;;;;5091811;28;20251;-50
2023/06/06 06:00:57;;;;;;;24.52;19.30;;;19.10;99.90;;;;;;5091443;28;20100;-49
2023/06/06 06:03:24;;;;;;;23.15;18.33;;;19.20;99.90;;;;;;5090390;28;20035;-49
2023/06/06 06:05:50;;;;;;;25.65;17.52;;;19.30;99.90;;;;;;5091448;28;20537;-49
2023/06/06 06:08:17;;;;;;;22.17;17.63;;;19.40;99.90;;;;;;5074332;28;20166;-52
2023/06/06 06:10:43;;;;;;;22.27;17.55;;;19.60;99.90;;;;;;5094399;28;20044;-49
2023/06/06 06:13:09;;;;;;;21.75;17.40;;;19.70;99.90;;;;;;5095898;28;20028;-51
2023/06/06 06:15:35;;;;;;;20.55;18.35;;;19.70;99.90;;;;;;5095378;28;20079;-49
2023/06/06 06:18:03;;;;;;;20.70;17.95;;;19.80;99.90;;;;;;5094279;28;20023;-49
2023/06/06 06:20:29;;;;;;;24.35;17.60;;;19.90;99.90;;;;;;5095468;28;20482;-49
2023/06/06 06:22:55;;;;;;;22.23;17.25;;;19.90;99.90;;;;;;5095614;28;20466;-49
2023/06/06 06:25:21;;;;;;;19.50;15.82;;;20.00;99.90;;;;;;5095461;28;20035;-49
2023/06/06 06:27:47;;;;;;;19.60;16.33;;;20.10;99.90;;;;;;5095652;28;20288;-49
2023/06/06 06:30:14;;;;;;;21.92;18.45;;;20.20;99.90;;;;;;5094138;28;20032;-49
2023/06/06 06:32:44;;;;;;;22.58;18.38;;;20.20;99.90;;;;;;5095371;28;20482;-53
2023/06/06 06:35:10;;;;;;;22.02;17.52;;;20.10;99.90;;;;;;5095127;28;20412;-51
2023/06/06 06:37:37;;;;;;;19.80;17.70;;;20.20;99.90;;;;;;5095132;28;20038;-52
2023/06/06 06:40:10;;;;;;;21.40;17.33;;;20.30;99.90;;;;;;5095068;28;20685;-50
2023/06/06 06:42:40;;;;;;;20.50;17.40;;;20.40;99.90;;;;;;5095244;28;20108;-49
2023/06/06 06:45:19;;;;;;;21.27;16.67;;;20.40;99.90;;;;;;5093669;28;20024;-49
2023/06/06 06:47:45;;;;;;;17.98;16.08;;;20.40;99.90;;;;;;5094927;28;20020;-49
2023/06/06 06:50:11;;;;;;;17.23;15.32;;;20.40;99.90;;;;;;5095054;28;20023;-49
2023/06/06 06:52:37;;;;;;;18.07;16.17;;;20.40;99.90;;;;;;5094902;28;20040;-49
2023/06/06 06:55:04;;;;;;;18.40;16.07;;;20.40;99.90;;;;;;5093614;28;20024;-50
2023/06/06 06:57:31;;;;;;;18.42;15.13;;;20.40;99.90;;;;;;5093585;28;20035;-49
2023/06/06 06:59:57;;;;;;;;;;;20.50;99.90;;;;;;5095015;28;20028;-49
2023/06/06 07:02:26;;;;;;;16.80;14.82;;;20.50;99.90;;;;;;5094939;28;19918;-51
2023/06/06 07:04:57;;;;;;;17.40;14.35;;;20.60;99.90;;;;;;5094503;28;20020;-49
2023/06/06 07:07:24;;;;;;;16.90;14.32;;;20.60;99.90;;;;;;5094590;28;20064;-49
2023/06/06 07:09:50;;;;;;;;;;;20.60;99.90;;;;;;5095017;28;20409;-50
2023/06/06 07:12:16;;;;;;;17.65;13.35;;;20.70;99.90;;;;;;5094539;28;19914;-49
2023/06/06 07:14:42;;;;;;;14.15;12.75;;;20.70;99.90;;;;;;5094323;28;20028;-49
2023/06/06 07:17:08;;;;;;;17.23;13.45;;;20.70;99.90;;;;;;5094347;28;20055;-49
2023/06/06 07:19:35;;;;;;;15.82;13.25;;;20.80;99.90;;;;;;5093901;28;20020;-49
2023/06/06 07:22:03;;;;;;;15.27;13.52;;;20.80;99.90;;;;;;5094166;28;20104;-50
2023/06/06 07:24:29;;;;;;;13.73;12.32;;;20.90;99.90;;;;;;5094351;28;20023;-51
2023/06/06 07:26:55;;;;;;;14.70;12.38;;;21.10;99.90;;;;;;5092853;28;20036;-50
2023/06/06 07:29:24;;;;;;;14.27;11.95;;;21.10;99.90;;;;;;5094268;28;20031;-49
2023/06/06 07:31:51;;;;;;;14.98;12.90;;;21.20;99.90;;;;;;5092726;28;20505;-56
2023/06/06 07:34:16;;;;;;;16.67;11.37;;;21.20;99.90;;;;;;5094140;28;20039;-59
2023/06/06 07:36:42;;;;;;;12.68;11.38;;;21.40;99.90;;;;;;5093861;28;20277;-57
2023/06/06 07:39:08;;;;;;;11.80;10.60;;;21.40;99.90;;;;;;5094010;28;20028;-55
2023/06/06 07:41:34;;;;;;;12.15;10.93;;;21.40;99.90;;;;;;5093789;28;20031;-57
2023/06/06 07:44:01;;;;;;;13.43;10.63;;;21.50;99.90;;;;;;5093983;28;20027;-54
2023/06/06 07:46:27;;;;;;;12.05;10.85;;;21.60;99.90;;;;;;5093829;28;20028;-52
2023/06/06 07:48:54;;;;;;;13.20;11.02;;;21.60;99.90;;;;;;5092735;28;20106;-51
2023/06/06 07:51:21;;;;;;;10.15;8.45;;;21.70;99.90;;;;;;5092586;28;20402;-51
2023/06/06 07:53:46;;;;;;;10.60;8.32;;;21.80;99.90;;;;;;5092549;28;20024;-51
2023/06/06 07:56:16;;;;;;;10.15;9.20;;;22.00;99.80;;;;;;5075423;28;20077;-52
2023/06/06 07:58:46;;;;;;;8.77;7.97;;;22.10;99.90;;;;;;5093813;28;20020;-51
2023/06/06 08:01:13;;;;;;;9.25;7.88;;;22.30;98.70;;;;;;5116311;22;20046;-47
2023/06/06 08:03:39;;;;;;;8.60;7.70;;;22.50;98.20;;;;;;5095785;28;20026;-46
2023/06/06 08:06:05;;;;;;;8.23;7.40;;;22.60;97.80;;;;;;5095624;28;20031;-47
2023/06/06 08:08:31;;;;;;;7.72;7.00;;;22.70;97.10;;;;;;5113921;28;20269;-47
2023/06/06 08:10:57;;;;;;;9.32;8.43;;;22.90;95.70;;;;;;5113671;28;20034;-47
2023/06/06 08:13:23;;;;;;;7.23;6.50;;;22.90;95.30;;;;;;5113894;28;20106;-48
2023/06/06 08:15:49;;;;;;;9.47;8.30;;;22.90;95.10;;;;;;5113438;28;20079;-47
2023/06/06 08:18:16;;;;;;;10.23;9.27;;;22.90;95.00;;;;;;5095405;28;20544;-48
2023/06/06 08:20:42;;;;;;;;;;;22.80;95.00;;;;;;5095686;28;20118;-50
2023/06/06 08:23:07;;;;;;;10.52;9.43;;;22.80;95.60;;;;;;5113562;28;19999;-47
2023/06/06 08:25:37;;;;;;;9.20;8.30;;;22.70;96.00;;;;;;5113304;28;20030;-47
2023/06/06 08:28:03;;;;;;;10.55;9.45;;;22.50;95.80;;;;;;5113383;28;20505;-47
2023/06/06 08:30:29;;;;;;;10.10;9.10;;;22.40;95.80;;;;;;5113253;28;20027;-49
2023/06/06 08:32:55;;;;;;;11.33;9.63;;;22.20;95.90;;;;;;5095129;28;20027;-48
2023/06/06 08:35:22;;;;;;;10.47;9.47;;;22.20;96.10;;;;;;5113088;28;20028;-48
2023/06/06 08:37:48;;;;;;;9.55;8.52;;;22.00;96.30;;;;;;5113094;28;20465;-50
2023/06/06 08:40:15;;;;;;;10.25;8.10;;;22.00;96.50;;;;;;5113110;28;20508;-49
2023/06/06 08:42:48;;;;;;;10.15;6.72;;;22.00;95.90;;;;;;5094799;28;20389;-47
2023/06/06 08:45:15;;;;;;;10.30;7.50;;;22.00;95.80;;;;;;5094557;28;20035;-47
2023/06/06 08:47:43;;;;;;;9.27;7.55;;;21.90;95.70;;;;;;5113047;28;20028;-49
2023/06/06 08:50:09;;;;;;;7.95;7.15;;;22.00;95.20;;;;;;5112938;28;20052;-47
2023/06/06 08:52:37;;;;;;;7.03;6.32;;;22.10;94.30;;;;;;5112964;28;20038;-49
2023/06/06 08:55:07;;;;;;;8.52;6.65;;;22.10;93.70;;;;;;5094594;28;20393;-47
2023/06/06 08:57:34;;;;;;;8.52;6.63;;;22.10;93.50;;;;;;5112742;28;20027;-47
2023/06/06 09:00:10;;;;;;;6.57;5.90;;;22.20;93.60;;;;;;5094281;28;20023;-48
2023/06/06 09:02:43;;;;;;;8.85;7.78;;;22.30;94.60;;;;;;5112806;28;20032;-48
2023/06/06 09:05:12;;;;;;;9.38;6.75;;;22.50;94.00;;;;;;5112542;28;20036;-47
2023/06/06 09:07:38;;;;;;;10.13;6.80;;;22.60;92.60;;;;;;5112818;28;20073;-47
2023/06/06 09:10:08;;;;;;;8.07;6.93;;;22.80;92.00;;;;;;5112577;28;20028;-47
2023/06/06 09:12:45;;;;;;;8.73;6.78;;;22.90;91.00;;;;;;5112572;28;20042;-47
2023/06/06 09:15:11;;;;;;;7.78;7.00;;;23.10;90.90;;;;;;5112333;28;20059;-47
2023/06/06 09:17:43;;;;;;;8.38;7.38;;;23.30;90.50;;;;;;5112430;28;20031;-48
2023/06/06 09:20:11;;;;;;;9.63;7.40;;;23.50;87.00;;;;;;5112509;28;20382;-47
2023/06/06 09:22:39;;;;;;;7.93;7.18;;;23.70;87.70;;;;;;5094301;28;20059;-49
2023/06/06 09:25:05;;;;;;;9.50;8.52;;;23.80;88.70;;;;;;5112257;28;20198;-48
2023/06/06 09:27:32;;;;;;;8.73;7.85;;;23.80;87.20;;;;;;5112388;28;20398;-49
2023/06/06 09:29:58;;;;;;;9.80;8.07;;;23.90;87.30;;;;;;5112194;28;20099;-47
2023/06/06 09:32:30;;;;;;;8.88;7.60;;;23.80;85.50;;;;;;5112518;28;20023;-47
2023/06/06 09:35:05;;;;;;;7.53;6.80;;;23.70;85.10;;;;;;5111991;28;20030;-47
2023/06/06 09:37:32;;;;;;;12.52;9.48;;;23.60;85.30;;;;;;5112220;28;20042;-47
2023/06/06 09:40:17;;;;;;;9.23;7.50;;;23.50;86.00;;;;;;5093806;28;20024;-50
2023/06/06 09:42:48;;;;;;;8.75;7.38;;;23.40;84.50;;;;;;5111782;28;20114;-48
2023/06/06 09:45:19;;;;;;;9.63;7.70;;;23.40;82.80;;;;;;5093764;28;20031;-47
2023/06/06 09:47:46;;;;;;;7.82;6.93;;;23.40;84.00;;;;;;5112243;28;20035;-48
2023/06/06 09:50:14;;;;;;;8.48;7.40;;;23.60;82.40;;;;;;5112082;28;20073;-48
2023/06/06 09:52:40;;;;;;;8.63;6.97;;;23.80;82.20;;;;;;5112046;28;20076;-48
2023/06/06 09:55:13;;;;;;;6.40;5.72;;;23.90;80.20;;;;;;5093572;28;20032;-47
2023/06/06 09:57:40;;;;;;;8.57;7.60;;;24.00;80.30;;;;;;5111916;28;20031;-47
2023/06/06 10:00:15;;;;;;;8.02;7.22;;;23.90;81.70;;;;;;5093518;28;20031;-51
2023/06/06 10:02:45;;;;;;;7.78;6.85;;;23.80;84.30;;;;;;5112023;28;20043;-47
2023/06/06 10:05:15;;;;;;;9.07;7.95;;;23.70;81.20;;;;;;5111794;28;20023;-47
2023/06/06 10:07:45;;;;;;;9.15;8.25;;;23.60;80.30;;;;;;5093600;28;20066;-47
2023/06/06 10:10:18;;;;;;;8.85;7.05;;;23.70;81.90;;;;;;5111757;28;20028;-47
2023/06/06 10:12:44;;;;;;;9.48;7.60;;;23.80;79.50;;;;;;5089622;28;20470;-47
2023/06/06 10:15:11;;;;;;;8.02;6.43;;;23.80;80.90;;;;;;5109176;28;20084;-47
2023/06/06 10:17:42;;;;;;;8.85;7.88;;;24.00;79.70;;;;;;5101258;28;20036;-48
2023/06/06 10:20:10;;;;;;;9.32;8.38;;;24.00;78.50;;;;;;5096684;28;20024;-47
2023/06/06 10:22:37;;;;;;;7.80;6.93;;;24.20;79.90;;;;;;5106126;28;20534;-48
2023/06/06 10:25:08;;;;;;;8.85;6.85;;;24.30;78.40;;;;;;5102620;28;20046;-47
2023/06/06 10:27:57;;;;;;;8.85;6.90;;;24.40;76.00;;;;;;5101971;28;20032;-47
2023/06/06 10:30:30;;;;;;;7.07;6.38;;;24.30;74.90;;;;;;5097917;28;20381;-49
2023/06/06 10:33:08;;;;;;;8.63;7.80;;;24.30;76.10;;;;;;5098341;28;20039;-48
2023/06/06 10:35:36;;;;;;;11.77;7.65;;;24.30;77.40;;;;;;5131963;28;20027;-47
2023/06/06 10:38:09;;;;;;;9.70;8.57;;;24.20;76.80;;;;;;5117015;28;20016;-49
2023/06/06 10:40:42;;;;;;;9.25;8.35;;;24.10;78.10;;;;;;5107640;28;20016;-48
2023/06/06 10:43:11;;;;;;;9.63;8.73;;;24.30;79.20;;;;;;5083283;28;20024;-48
2023/06/06 10:45:45;;;;;;;9.68;8.57;;;24.50;77.70;;;;;;5095491;28;20024;-50
2023/06/06 10:48:11;;;;;;;9.65;6.90;;;24.60;76.10;;;;;;5074185;28;20036;-47
2023/06/06 10:50:50;;;;;;;8.30;7.50;;;24.70;74.50;;;;;;5107464;28;20032;-49
2023/06/06 10:53:17;;;;;;;11.52;8.80;;;24.90;74.10;;;;;;5098485;28;20030;-47
2023/06/06 10:55:47;;;;;;;9.20;8.20;;;25.00;73.60;;;;;;5106135;28;20024;-47
2023/06/06 10:58:27;;;;;;;9.45;7.18;;;25.20;73.00;;;;;;5082168;28;20060;-50
2023/06/06 11:01:03;;;;;;;9.38;7.80;;;25.20;71.10;;;;;;5098129;28;20394;-49
2023/06/06 11:03:32;;;;;;;7.80;6.97;;;25.30;69.70;;;;;;5067699;28;20111;-47
2023/06/06 11:06:01;;;;;;;9.73;8.50;;;25.40;71.80;;;;;;5108992;28;20028;-47
2023/06/06 11:08:42;;;;;;;8.98;8.07;;;25.50;71.10;;;;;;5109751;28;20023;-48
2023/06/06 11:11:27;;;;;;;9.95;7.85;;;25.30;69.50;;;;;;5121046;27;20021;-47
2023/06/06 11:13:57;;;;;;;9.40;8.38;;;25.30;72.20;;;;;;5113655;27;20034;-49
2023/06/06 11:16:46;;;;;;;14.38;9.35;;;25.40;69.20;;;;;;5111467;27;20027;-49
2023/06/06 11:19:18;;;;;;;10.65;9.55;;;25.60;70.20;;;;;;5115117;27;20036;-47
2023/06/06 11:21:48;;;;;;;7.78;6.97;;;25.60;69.70;;;;;;5111492;28;20024;-47
2023/06/06 11:24:18;;;;;;;8.63;7.47;;;25.50;67.60;;;;;;5108975;28;20044;-48
2023/06/06 11:26:45;;;;;;;7.75;6.85;;;25.50;67.80;;;;;;5107841;28;20031;-48
2023/06/06 11:29:12;;;;;;;9.30;8.30;;;25.60;68.00;;;;;;5108391;28;20103;-49
2023/06/06 11:31:39;;;;;;;8.50;7.30;;;25.90;67.60;;;;;;5109483;28;20511;-48
2023/06/06 11:34:10;;;;;;;9.35;6.75;;;26.00;67.30;;;;;;5082796;28;20065;-48
2023/06/06 11:36:38;;;;;;;8.30;7.20;;;26.00;66.70;;;;;;5100383;28;20056;-48
2023/06/06 11:39:10;;;;;;;8.98;7.68;;;25.90;66.90;;;;;;5091249;28;20103;-49
2023/06/06 11:41:39;;;;;;;9.05;8.15;;;25.80;67.00;;;;;;5102318;28;20032;-47
2023/06/06 11:44:05;;;;;;;8.85;7.80;;;25.90;67.90;;;;;;5082832;28;20132;-48
2023/06/06 11:46:47;;;;;;;7.55;6.75;;;26.10;66.30;;;;;;5108569;28;20031;-48
2023/06/06 11:49:13;;;;;;;7.45;6.55;;;26.00;65.70;;;;;;5099017;28;20536;-47
2023/06/06 11:51:40;;;;;;;8.98;7.25;;;26.00;65.70;;;;;;5104761;28;20107;-48
2023/06/06 11:54:20;;;;;;;6.25;5.68;;;25.80;64.90;;;;;;5106149;28;20031;-47
2023/06/06 11:56:46;;;;;;;6.68;5.97;;;25.60;65.90;;;;;;5109754;28;20034;-47
2023/06/06 11:59:12;;;;;;;6.77;5.70;;;25.60;67.90;;;;;;5099423;28;20032;-49
2023/06/06 12:01:53;;;;;;;7.75;6.80;;;25.70;67.50;;;;;;5073682;28;20028;-49
2023/06/06 12:04:23;;;;;;;7.47;6.13;;;25.90;67.30;;;;;;5099163;28;20032;-50
2023/06/06 12:06:54;;;;;;;7.13;6.43;;;26.20;68.00;;;;;;5108729;28;20024;-51
2023/06/06 12:09:23;;;;;;;7.18;5.97;;;26.50;64.60;;;;;;5108525;28;20031;-47
2023/06/06 12:11:59;;;;;;;8.82;7.15;;;26.80;64.90;;;;;;5089511;28;20028;-49
2023/06/06 12:14:29;;;;;;;7.07;6.40;;;27.10;61.80;;;;;;5099185;28;20024;-48
2023/06/06 12:17:05;;;;;;;7.47;6.68;;;27.00;62.60;;;;;;5080768;28;20481;-48
2023/06/06 12:19:32;;;;;;;6.88;6.13;;;27.30;61.50;;;;;;5108200;28;20524;-47
2023/06/06 12:21:58;;;;;;;6.60;5.47;;;27.30;62.90;;;;;;5102083;28;20112;-49
2023/06/06 12:24:30;;;;;;;6.10;5.07;;;27.60;62.70;;;;;;5106477;28;20073;-47
2023/06/06 12:26:59;;;;;;;8.38;6.20;;;27.90;63.30;;;;;;5091095;28;20039;-47
2023/06/06 12:29:35;;;;;;;6.57;5.78;;;28.00;59.40;;;;;;5099133;28;20059;-48
2023/06/06 12:32:21;;;;;;;8.43;7.05;;;27.90;59.40;;;;;;5089340;28;20035;-48
2023/06/06 12:35:05;;;;;;;6.03;5.50;;;27.90;61.60;;;;;;5088279;28;20107;-48
2023/06/06 12:37:49;;;;;;;6.47;5.85;;;27.80;60.60;;;;;;5081251;28;20034;-48
2023/06/06 12:40:19;;;;;;;6.20;5.60;;;27.60;58.90;;;;;;5099622;28;20028;-47
2023/06/06 12:42:52;;;;;;;9.27;6.63;;;27.20;60.30;;;;;;5109447;28;20651;-48
2023/06/06 12:45:19;;;;;;;6.45;5.80;;;27.10;61.10;;;;;;5095353;28;20028;-47
2023/06/06 12:47:51;;;;;;;7.25;6.43;;;27.00;62.30;;;;;;5085676;28;20028;-50
2023/06/06 12:50:18;;;;;;;6.78;5.68;;;27.00;61.80;;;;;;5087430;28;20031;-48